createdAt,value
2022-12-23T00:00:17.811Z,0.03
2022-12-23T00:02:45.151Z,0.30
2022-12-23T00:05:12.627Z,0.45
2022-12-23T00:07:40.113Z,0.10
2022-12-23T00:10:07.870Z,1.23
2022-12-23T00:12:53.366Z,1.25
2022-12-23T00:15:20.579Z,0.40
2022-12-23T00:17:47.719Z,0.20
2022-12-23T00:20:15.074Z,2.38
2022-12-23T00:23:00.363Z,0.25
2022-12-23T00:25:44.756Z,0.10
2022-12-23T00:28:23.108Z,0.00
2022-12-23T00:30:53.697Z,0.00
2022-12-23T00:33:25.017Z,0.15
2022-12-23T00:35:52.296Z,0.00
2022-12-23T00:38:42.567Z,0.52
2022-12-23T00:41:32.465Z,0.08
2022-12-23T00:43:59.531Z,0.22
2022-12-23T00:46:27.071Z,1.20
2022-12-23T00:49:12.542Z,2.85
2022-12-23T00:51:39.619Z,0.00
2022-12-23T00:54:06.756Z,0.10
2022-12-23T00:56:34.008Z,0.65
2022-12-23T00:59:00.998Z,0.00
2022-12-23T01:01:46.608Z,0.00
2022-12-23T01:04:33.198Z,0.00
2022-12-23T01:07:00.479Z,0.00
2022-12-23T01:09:27.618Z,0.35
2022-12-23T01:11:54.769Z,0.55
2022-12-23T01:14:21.773Z,0.57
2022-12-23T01:16:50.212Z,1.75
2022-12-23T01:19:17.655Z,0.17
2022-12-23T01:21:45.089Z,6.32
2022-12-23T01:24:12.214Z,0.05
2022-12-23T01:26:39.212Z,0.25
2022-12-23T01:29:06.224Z,1.95
2022-12-23T01:31:33.391Z,7.32
2022-12-23T01:34:00.524Z,0.25
2022-12-23T01:36:27.532Z,0.30
2022-12-23T01:38:56.319Z,0.85
2022-12-23T01:41:44.231Z,1.75
2022-12-23T01:44:47.385Z,0.20
2022-12-23T01:47:44.178Z,4.15
2022-12-23T01:50:16.360Z,0.08
2022-12-23T01:53:00.390Z,0.10
2022-12-23T01:55:35.561Z,1.63
2022-12-23T01:58:12.311Z,0.03
2022-12-23T02:01:03.196Z,0.10
2022-12-23T02:03:42.351Z,0.00
2022-12-23T02:06:43.546Z,0.80
2022-12-23T02:09:18.276Z,1.80
2022-12-23T02:11:47.984Z,0.00
2022-12-23T02:14:46.883Z,0.00
2022-12-23T02:17:32.288Z,0.00
2022-12-23T02:19:59.225Z,0.28
2022-12-23T02:22:39.256Z,0.00
2022-12-23T02:25:18.549Z,0.00
2022-12-23T02:28:13.669Z,0.00
2022-12-23T02:30:42.924Z,0.00
2022-12-23T02:33:15.116Z,0.10
2022-12-23T02:36:07.530Z,0.20
2022-12-23T02:39:02.807Z,0.08
2022-12-23T02:41:44.513Z,2.72
2022-12-23T02:44:44.224Z,0.00
2022-12-23T02:47:21.655Z,0.95
2022-12-23T02:50:03.923Z,0.00
2022-12-23T02:52:32.767Z,0.00
2022-12-23T02:55:03.277Z,3.20
2022-12-23T02:57:34.122Z,0.90
2022-12-23T03:00:01.560Z,0.08
2022-12-23T03:02:37.812Z,1.65
2022-12-23T03:05:05.845Z,0.00
2022-12-23T03:07:35.714Z,0.03
2022-12-23T03:10:25.358Z,0.00
2022-12-23T03:13:05.109Z,0.00
2022-12-23T03:15:50.993Z,0.00
2022-12-23T03:18:33.566Z,0.00
2022-12-23T03:21:13.001Z,0.43
2022-12-23T03:23:43.432Z,0.00
2022-12-23T03:26:21.059Z,0.00
2022-12-23T03:29:25.408Z,0.73
2022-12-23T03:31:53.284Z,0.25
2022-12-23T03:34:33.462Z,0.00
2022-12-23T03:37:22.014Z,0.00
2022-12-23T03:39:52.869Z,0.00
2022-12-23T03:42:26.308Z,0.93
2022-12-23T03:45:36.960Z,0.45
2022-12-23T03:48:14.161Z,0.00
2022-12-23T03:52:32.427Z,0.10
2022-12-23T04:06:53.330Z,0.00
2022-12-23T04:10:25.348Z,0.32
2022-12-23T04:13:35.532Z,0.00
2022-12-23T04:16:35.983Z,0.00
2022-12-23T04:19:27.571Z,0.28
2022-12-23T04:21:56.429Z,0.00
2022-12-23T04:24:35.346Z,1.27
2022-12-23T04:27:02.542Z,0.00
2022-12-23T04:29:33.236Z,0.32
2022-12-23T04:35:55.131Z,0.00
2022-12-23T04:38:24.532Z,0.00
2022-12-23T04:40:55.582Z,0.03
2022-12-23T04:43:22.941Z,1.05
2022-12-23T04:45:55.944Z,2.65
2022-12-23T04:48:26.415Z,0.00
2022-12-23T04:50:58.805Z,0.00
2022-12-23T04:53:33.464Z,0.00
2022-12-23T04:56:16.829Z,0.00
2022-12-23T05:09:38.509Z,0.40
2022-12-23T05:12:19.204Z,3.25
2022-12-23T05:14:46.872Z,0.00
2022-12-23T05:17:15.125Z,0.00
2022-12-23T05:19:42.400Z,0.00
2022-12-23T05:22:41.257Z,0.25
2022-12-23T05:25:27.259Z,0.00
2022-12-23T05:28:09.303Z,0.73
2022-12-23T05:37:51.926Z,0.00
2022-12-23T05:40:24.246Z,0.52
2022-12-23T05:43:00.896Z,0.00
2022-12-23T05:45:28.170Z,0.00
2022-12-23T05:47:55.373Z,0.00
2022-12-23T05:50:22.603Z,0.00
2022-12-23T05:52:49.846Z,0.00
2022-12-23T05:55:18.238Z,0.00
2022-12-23T05:58:01.509Z,0.00
2022-12-23T06:00:37.103Z,0.52
2022-12-23T06:03:09.069Z,4.18
2022-12-23T06:05:38.912Z,1.55
2022-12-23T06:08:06.810Z,0.05
2022-12-23T06:10:34.091Z,0.70
2022-12-23T06:13:01.302Z,0.85
2022-12-23T06:18:53.743Z,0.50
2022-12-23T06:46:00.387Z,0.03
2022-12-23T10:47:46.079Z,0.10
2022-12-23T10:51:18.924Z,0.05
2022-12-23T10:54:10.369Z,0.35
2022-12-23T10:56:39.784Z,0.00
2022-12-23T10:59:14.790Z,0.43
2022-12-23T11:04:17.759Z,0.38
2022-12-23T11:06:48.389Z,0.00
2022-12-23T11:09:22.414Z,0.10
2022-12-23T11:15:58.883Z,1.27
2022-12-23T11:18:25.884Z,1.08
2022-12-23T11:26:04.395Z,1.50
2022-12-23T11:28:31.860Z,0.20
2022-12-23T11:31:26.299Z,0.82
2022-12-23T11:33:59.144Z,0.10
2022-12-23T11:36:27.787Z,0.40
2022-12-23T11:39:00.706Z,0.40
2022-12-23T11:41:29.071Z,0.38
2022-12-23T11:44:01.738Z,0.10
2022-12-23T11:46:32.459Z,1.98
2022-12-23T11:49:26.887Z,0.10
2022-12-23T11:52:01.067Z,0.38
2022-12-23T11:54:28.517Z,0.20
2022-12-23T11:56:55.517Z,1.08
2022-12-23T11:59:36.449Z,0.35
2022-12-23T12:02:05.904Z,0.63
2022-12-23T12:04:35.144Z,0.55
2022-12-23T12:07:02.983Z,0.20
2022-12-23T12:09:30.871Z,0.82
2022-12-23T12:12:05.703Z,1.40
2022-12-23T12:14:54.527Z,4.18
2022-12-23T12:17:32.636Z,0.68
2022-12-23T12:20:05.715Z,3.88
2022-12-23T12:22:48.590Z,2.97
2022-12-23T12:25:22.564Z,0.20
2022-12-23T12:27:56.446Z,2.17
2022-12-23T12:30:23.485Z,2.17
2022-12-23T12:32:52.974Z,1.10
2022-12-23T12:35:21.886Z,1.77
2022-12-23T12:37:53.044Z,1.00
2022-12-23T12:40:42.477Z,1.42
2022-12-23T12:43:31.490Z,2.95
2022-12-23T12:46:54.972Z,2.42
2022-12-23T12:49:28.623Z,6.28
2022-12-23T12:52:23.161Z,2.30
2022-12-23T12:55:20.940Z,1.55
2022-12-23T12:57:47.902Z,3.25
2022-12-23T13:00:16.882Z,1.55
2022-12-23T13:03:09.878Z,1.98
2022-12-23T13:05:39.590Z,2.30
2022-12-23T13:08:25.131Z,0.95
2022-12-23T13:11:02.068Z,5.82
2022-12-23T13:13:52.561Z,1.58
2022-12-23T13:16:46.208Z,5.03
2022-12-23T13:19:31.740Z,4.38
2022-12-23T13:22:07.636Z,5.88
2022-12-23T13:24:43.827Z,1.08
2022-12-23T13:29:54.597Z,1.40
2022-12-23T13:32:33.465Z,0.52
2022-12-23T13:35:22.742Z,5.47
2022-12-23T13:38:14.904Z,8.88
2022-12-23T13:41:06.518Z,4.57
2022-12-23T13:43:56.181Z,1.90
2022-12-23T13:46:55.951Z,1.08
2022-12-23T13:49:53.229Z,8.00
2022-12-23T13:52:23.048Z,9.30
2022-12-23T13:54:52.999Z,6.82
2022-12-23T13:57:44.724Z,8.20
2022-12-23T14:00:17.888Z,3.30
2022-12-23T14:03:18.540Z,4.40
2022-12-23T14:05:50.635Z,7.28
2022-12-23T14:08:26.078Z,6.00
2022-12-23T14:11:14.884Z,2.37
2022-12-23T14:13:52.214Z,4.43
2022-12-23T14:16:45.515Z,4.60
2022-12-23T14:19:51.215Z,5.90
2022-12-23T14:22:36.983Z,3.65
2022-12-23T14:25:41.071Z,3.03
2022-12-23T14:28:11.544Z,0.90
2022-12-23T14:31:27.901Z,1.35
2022-12-23T14:34:27.259Z,5.28
2022-12-23T14:37:21.835Z,4.60
2022-12-23T14:39:49.273Z,4.78
2022-12-23T14:42:36.828Z,7.18
2022-12-23T14:45:29.555Z,5.07
2022-12-23T14:47:56.460Z,4.53
2022-12-23T14:50:37.655Z,4.85
2022-12-23T14:53:25.765Z,8.88
2022-12-23T14:56:21.846Z,3.47
2022-12-23T14:58:52.060Z,3.55
2022-12-23T15:01:40.671Z,4.03
2022-12-23T15:04:13.432Z,5.43
2022-12-23T15:06:42.060Z,7.90
2022-12-23T15:09:21.595Z,8.43
2022-12-23T15:11:48.573Z,3.30
2022-12-23T15:14:35.820Z,7.43
2022-12-23T15:17:35.949Z,4.88
2022-12-23T15:20:21.692Z,5.15
2022-12-23T15:22:48.938Z,4.03
2022-12-23T15:25:35.134Z,7.50
2022-12-23T15:28:02.923Z,2.75
2022-12-23T15:30:34.704Z,5.22
2022-12-23T15:33:43.178Z,4.70
2022-12-23T15:36:04.733Z,2.97
2022-12-23T15:38:34.854Z,3.72
2022-12-23T15:41:03.793Z,4.32
2022-12-23T15:43:30.958Z,2.25
2022-12-23T15:46:17.124Z,4.30
2022-12-23T15:48:44.329Z,1.67
2022-12-23T15:52:06.555Z,4.15
2022-12-23T15:57:04.421Z,6.35
2022-12-23T15:59:37.247Z,6.65
2022-12-23T16:02:58.606Z,5.10
2022-12-23T16:05:05.349Z,3.05
2022-12-23T16:07:38.398Z,3.75
2022-12-23T16:10:15.251Z,7.20
2022-12-23T16:12:44.603Z,6.05
2022-12-23T16:15:29.537Z,1.85
2022-12-23T16:18:32.971Z,1.85
2022-12-23T16:21:01.614Z,8.93
2022-12-23T16:23:30.252Z,5.65
2022-12-23T16:25:58.736Z,4.68
2022-12-23T16:28:44.299Z,4.60
2022-12-23T16:31:11.442Z,2.20
2022-12-23T16:33:40.200Z,5.63
2022-12-23T16:36:29.285Z,3.33
2022-12-23T16:39:17.718Z,5.45
2022-12-23T16:41:45.146Z,8.82
2022-12-23T16:44:12.214Z,9.85
2022-12-23T16:46:42.243Z,3.13
2022-12-23T16:49:14.115Z,4.85
2022-12-23T16:51:41.365Z,2.90
2022-12-23T16:54:19.225Z,6.15
2022-12-23T16:56:50.216Z,5.75
2022-12-23T16:59:18.566Z,3.95
2022-12-23T17:01:46.692Z,3.58
2022-12-23T17:04:14.135Z,4.03
2022-12-23T17:06:41.856Z,4.60
2022-12-23T17:09:10.379Z,7.25
2022-12-23T17:11:41.134Z,5.68
2022-12-23T17:14:16.618Z,5.80
2022-12-23T17:16:44.436Z,4.63
2022-12-23T17:19:11.779Z,5.47
2022-12-23T17:21:39.347Z,7.80
2022-12-23T17:24:23.828Z,7.15
2022-12-23T17:26:51.178Z,5.55
2022-12-23T17:29:18.101Z,9.25
2022-12-23T17:31:45.177Z,6.43
2022-12-23T17:34:20.414Z,13.25
2022-12-23T17:36:50.432Z,3.65
2022-12-23T17:39:18.557Z,7.43
2022-12-23T17:41:45.743Z,13.00
2022-12-23T17:44:14.505Z,6.95
2022-12-23T17:46:41.492Z,4.88
2022-12-23T17:49:11.098Z,8.63
2022-12-23T17:51:39.364Z,10.90
2022-12-23T17:54:06.836Z,7.65
2022-12-23T17:56:33.813Z,8.82
2022-12-23T17:59:01.108Z,9.95
2022-12-23T18:01:30.096Z,7.13
2022-12-23T18:03:57.877Z,5.32
2022-12-23T18:06:25.374Z,11.15
2022-12-23T18:08:52.886Z,9.98
2022-12-23T18:11:56.629Z,9.85
2022-12-23T18:14:32.676Z,9.55
2022-12-23T18:16:59.940Z,11.60
2022-12-23T18:19:27.121Z,12.38
2022-12-23T18:21:54.539Z,13.93
2022-12-23T18:24:26.107Z,9.77
2022-12-23T18:31:56.352Z,8.02
2022-12-23T18:34:33.863Z,13.15
2022-12-23T18:37:21.477Z,7.68
2022-12-23T18:40:06.088Z,13.85
2022-12-23T18:46:23.787Z,10.57
2022-12-23T18:48:56.607Z,7.10
2022-12-23T18:52:08.371Z,13.27
2022-12-23T19:32:10.874Z,12.43
2022-12-23T19:42:20.533Z,10.52
